createdAt,value
2019-02-25T00:02:26.437Z,62.00
2019-02-25T00:04:57.869Z,63.10
2019-02-25T00:07:29.213Z,62.80
2019-02-25T00:10:00.547Z,62.20
2019-02-25T00:12:32.044Z,62.00
2019-02-25T00:15:03.435Z,61.90
2019-02-25T00:17:37.142Z,61.40
2019-02-25T00:20:13.069Z,61.70
2019-02-25T00:22:44.419Z,62.00
2019-02-25T00:25:15.736Z,63.40
2019-02-25T00:27:47.063Z,64.20
2019-02-25T00:30:18.400Z,65.50
2019-02-25T00:32:49.860Z,67.20
2019-02-25T00:35:21.283Z,67.70
2019-02-25T00:37:52.589Z,68.30
2019-02-25T00:40:23.853Z,67.10
2019-02-25T00:42:55.184Z,69.60
2019-02-25T00:45:26.459Z,69.80
2019-02-25T00:47:57.771Z,69.50
2019-02-25T00:50:54.240Z,69.10
2019-02-25T00:53:25.667Z,70.70
2019-02-25T00:55:57.021Z,71.00
2019-02-25T00:58:28.343Z,70.80
2019-02-25T01:00:59.596Z,72.20
2019-02-25T01:03:30.964Z,72.70
2019-02-25T01:06:03.278Z,75.40
2019-02-25T01:08:34.619Z,74.60
2019-02-25T01:11:06.017Z,74.30
2019-02-25T01:13:37.331Z,76.10
2019-02-25T01:16:08.673Z,79.10
2019-02-25T01:18:39.965Z,79.10
2019-02-25T01:21:11.253Z,78.60
2019-02-25T01:23:42.556Z,79.00
2019-02-25T01:26:13.823Z,77.70
2019-02-25T01:28:45.115Z,77.60
2019-02-25T01:31:16.354Z,77.60
2019-02-25T01:33:47.648Z,78.60
2019-02-25T01:36:18.970Z,78.20
2019-02-25T01:38:50.272Z,77.90
2019-02-25T01:41:21.542Z,78.60
2019-02-25T01:43:52.916Z,78.20
2019-02-25T01:46:24.163Z,79.50
2019-02-25T01:48:55.452Z,79.40
2019-02-25T01:51:26.785Z,79.80
2019-02-25T01:53:58.373Z,80.10
2019-02-25T01:56:29.628Z,80.90
2019-02-25T01:59:01.260Z,80.60
2019-02-25T02:01:32.508Z,81.50
2019-02-25T02:04:03.812Z,82.40
2019-02-25T02:06:35.173Z,82.80
2019-02-25T02:09:08.567Z,81.70
2019-02-25T02:11:40.734Z,81.30
2019-02-25T02:14:11.986Z,82.00
2019-02-25T02:16:43.340Z,81.60
2019-02-25T02:19:14.608Z,80.10
2019-02-25T02:21:45.972Z,79.00
2019-02-25T02:24:17.218Z,78.20
2019-02-25T02:26:48.492Z,77.90
2019-02-25T02:29:19.864Z,78.70
2019-02-25T02:31:51.945Z,77.70
2019-02-25T02:34:24.332Z,76.70
2019-02-25T02:36:55.575Z,76.10
2019-02-25T02:39:26.958Z,74.70
2019-02-25T02:42:16.719Z,73.80
2019-02-25T02:44:52.387Z,73.10
2019-02-25T02:47:36.835Z,73.90
2019-02-25T02:50:12.827Z,72.00
2019-02-25T02:52:44.126Z,72.00
2019-02-25T02:55:15.425Z,71.90
2019-02-25T02:57:46.735Z,73.00
2019-02-25T03:00:19.945Z,72.90
2019-02-25T03:02:51.314Z,73.20
2019-02-25T03:05:22.652Z,72.60
2019-02-25T03:07:53.907Z,73.10
2019-02-25T03:10:25.283Z,73.40
2019-02-25T03:12:56.532Z,73.60
2019-02-25T03:15:27.976Z,72.90
2019-02-25T03:17:59.251Z,73.50
2019-02-25T03:20:30.770Z,72.30
2019-02-25T03:23:02.095Z,72.50
2019-02-25T03:25:33.474Z,72.40
2019-02-25T03:28:04.792Z,72.20
2019-02-25T03:30:36.177Z,72.50
2019-02-25T03:33:07.581Z,72.70
2019-02-25T03:35:38.950Z,72.40
2019-02-25T03:38:10.205Z,73.40
2019-02-25T03:40:41.581Z,73.50
2019-02-25T03:43:12.853Z,73.50
2019-02-25T03:45:44.167Z,73.70
2019-02-25T03:48:15.470Z,74.50
2019-02-25T03:50:46.781Z,74.40
2019-02-25T03:53:18.053Z,74.60
2019-02-25T03:55:49.543Z,75.30
2019-02-25T03:58:21.941Z,75.90
2019-02-25T04:00:53.500Z,74.30
2019-02-25T04:03:24.980Z,74.50
2019-02-25T04:05:56.493Z,74.70
2019-02-25T04:08:28.015Z,74.70
2019-02-25T04:10:59.305Z,75.10
2019-02-25T04:13:30.562Z,74.80
2019-02-25T04:16:03.293Z,74.90
2019-02-25T04:18:39.066Z,75.90
2019-02-25T04:21:10.417Z,76.10
2019-02-25T04:23:41.707Z,75.40
2019-02-25T04:26:13.023Z,75.20
2019-02-25T04:28:44.264Z,75.40
2019-02-25T04:31:15.568Z,75.40
2019-02-25T04:33:47.863Z,75.70
2019-02-25T04:36:19.249Z,76.30
2019-02-25T04:38:50.517Z,76.10
2019-02-25T04:41:21.819Z,76.70
2019-02-25T04:43:53.071Z,75.80
2019-02-25T04:46:24.379Z,76.00
2019-02-25T04:48:55.723Z,76.20
2019-02-25T04:51:27.175Z,77.30
2019-02-25T04:53:58.544Z,78.70
2019-02-25T04:56:30.296Z,79.50
2019-02-25T04:59:01.540Z,80.10
2019-02-25T05:01:33.847Z,80.60
2019-02-25T05:04:05.176Z,80.50
2019-02-25T05:06:36.510Z,82.50
2019-02-25T05:09:07.833Z,82.20
2019-02-25T05:11:39.285Z,84.30
2019-02-25T05:14:10.571Z,84.70
2019-02-25T05:16:42.013Z,85.30
2019-02-25T05:19:13.368Z,86.10
2019-02-25T05:21:44.753Z,87.80
2019-02-25T05:24:16.000Z,87.50
2019-02-25T05:26:47.357Z,86.90
2019-02-25T05:29:18.747Z,87.80
2019-02-25T05:31:51.279Z,87.80
2019-02-25T05:34:22.537Z,87.60
2019-02-25T05:36:53.904Z,87.90
2019-02-25T05:39:25.216Z,89.60
2019-02-25T05:41:56.520Z,90.60
2019-02-25T05:44:27.842Z,88.20
2019-02-25T05:46:59.161Z,89.40
2019-02-25T05:49:30.465Z,89.90
2019-02-25T05:52:02.218Z,90.00
2019-02-25T05:54:34.575Z,90.20
2019-02-25T05:57:05.978Z,90.20
2019-02-25T05:59:37.269Z,90.00
2019-02-25T06:02:08.629Z,89.10
2019-02-25T06:04:39.956Z,89.40
2019-02-25T06:07:11.239Z,88.90
2019-02-25T06:09:42.607Z,89.30
2019-02-25T06:12:13.949Z,90.50
2019-02-25T06:14:45.325Z,90.00
2019-02-25T06:17:16.580Z,89.60
2019-02-25T06:19:48.013Z,90.10
2019-02-25T06:22:19.232Z,90.40
2019-02-25T06:24:50.549Z,90.20
2019-02-25T06:27:30.439Z,90.30
2019-02-25T06:29:57.944Z,90.40
2019-02-25T06:32:30.521Z,90.50
2019-02-25T06:35:01.836Z,90.80
2019-02-25T06:37:33.251Z,90.90
2019-02-25T06:40:06.240Z,91.30
2019-02-25T06:42:37.699Z,91.40
2019-02-25T06:45:22.541Z,91.40
2019-02-25T06:47:53.896Z,91.20
2019-02-25T06:50:25.289Z,91.10
2019-02-25T06:52:56.661Z,91.30
2019-02-25T06:55:28.009Z,91.40
2019-02-25T06:57:59.417Z,91.50
2019-02-25T07:00:33.678Z,91.60
2019-02-25T07:03:05.147Z,91.60
2019-02-25T07:05:40.932Z,91.70
2019-02-25T07:08:19.703Z,91.50
2019-02-25T07:11:07.802Z,91.50
2019-02-25T07:13:43.532Z,91.60
2019-02-25T07:16:14.551Z,91.00
2019-02-25T07:18:47.665Z,91.80
2019-02-25T07:21:24.716Z,91.90
2019-02-25T07:23:55.837Z,92.10
2019-02-25T07:26:31.563Z,91.90
2019-02-25T07:29:20.678Z,91.90
2019-02-25T07:31:54.671Z,92.10
2019-02-25T07:34:43.710Z,91.80
2019-02-25T07:37:19.488Z,91.80
2019-02-25T07:39:54.965Z,91.70
2019-02-25T07:42:36.855Z,91.40
2019-02-25T07:45:19.352Z,90.30
2019-02-25T07:47:54.702Z,89.50
2019-02-25T07:50:33.550Z,90.10
2019-02-25T07:53:22.719Z,90.30
2019-02-25T07:56:02.153Z,90.20
2019-02-25T07:58:41.535Z,90.30
2019-02-25T08:01:16.986Z,91.30
2019-02-25T08:03:49.868Z,91.10
2019-02-25T08:06:29.509Z,90.80
2019-02-25T08:09:11.128Z,90.90
2019-02-25T08:11:59.471Z,91.10
2019-02-25T08:14:38.169Z,91.00
2019-02-25T08:17:09.388Z,90.00
2019-02-25T08:19:40.431Z,90.10
2019-02-25T08:22:14.468Z,90.00
2019-02-25T08:24:50.116Z,89.90
2019-02-25T08:27:32.043Z,89.80
2019-02-25T08:30:11.212Z,89.10
2019-02-25T08:32:46.875Z,86.70
2019-02-25T08:36:02.835Z,84.70
2019-02-25T08:38:38.543Z,84.40
2019-02-25T08:41:16.647Z,83.30
2019-02-25T08:43:52.342Z,83.30
2019-02-25T08:46:31.008Z,82.30
2019-02-25T08:49:06.681Z,83.20
2019-02-25T08:51:38.014Z,81.30
2019-02-25T08:54:09.493Z,80.90
2019-02-25T08:56:40.797Z,81.30
2019-02-25T08:59:12.402Z,79.90
2019-02-25T09:01:43.928Z,79.70
2019-02-25T09:04:15.287Z,79.00
2019-02-25T09:06:46.529Z,73.30
2019-02-25T09:09:17.910Z,70.80
2019-02-25T09:11:49.612Z,67.60
2019-02-25T09:14:21.001Z,68.70
2019-02-25T09:16:52.334Z,71.20
2019-02-25T09:19:23.702Z,69.60
2019-02-25T09:21:55.043Z,68.30
2019-02-25T09:24:26.421Z,69.00
2019-02-25T09:26:57.685Z,69.00
2019-02-25T09:29:29.078Z,70.20
2019-02-25T09:32:00.414Z,69.10
2019-02-25T09:34:31.773Z,66.90
2019-02-25T09:37:03.111Z,66.70
2019-02-25T09:39:35.419Z,66.70
2019-02-25T09:42:08.492Z,65.40
2019-02-25T09:44:39.947Z,65.20
2019-02-25T09:47:11.311Z,66.90
2019-02-25T09:49:43.676Z,67.00
2019-02-25T09:52:14.974Z,67.00
2019-02-25T09:54:46.347Z,67.00
2019-02-25T09:57:17.784Z,65.70
2019-02-25T09:59:49.181Z,65.10
2019-02-25T10:02:20.452Z,65.20
2019-02-25T10:04:51.772Z,65.10
2019-02-25T10:07:23.106Z,63.30
2019-02-25T10:09:54.532Z,64.80
2019-02-25T10:12:25.794Z,58.40
2019-02-25T10:14:57.190Z,58.30
2019-02-25T10:17:28.437Z,59.60
2019-02-25T10:19:59.822Z,59.00
2019-02-25T10:22:32.776Z,55.10
2019-02-25T10:25:06.457Z,52.00
2019-02-25T10:27:37.833Z,49.10
2019-02-25T10:30:21.301Z,53.70
2019-02-25T10:32:52.616Z,51.90
2019-02-25T10:35:29.223Z,50.70
2019-02-25T10:38:01.139Z,47.50
2019-02-25T10:40:33.559Z,49.60
2019-02-25T10:43:04.866Z,50.80
2019-02-25T10:45:37.204Z,49.80
2019-02-25T10:48:09.308Z,52.80
2019-02-25T10:50:40.953Z,49.50
2019-02-25T10:53:13.585Z,50.30
2019-02-25T10:56:03.736Z,48.80
2019-02-25T10:58:36.005Z,47.50
2019-02-25T11:01:13.469Z,48.60
2019-02-25T11:03:40.601Z,49.60
2019-02-25T11:06:11.991Z,47.40
2019-02-25T11:08:45.719Z,45.40
2019-02-25T11:11:20.989Z,46.80
2019-02-25T11:13:52.057Z,45.20
2019-02-25T11:16:23.585Z,45.40
2019-02-25T11:18:56.558Z,44.40
2019-02-25T11:21:28.077Z,44.00
2019-02-25T11:23:59.423Z,38.20
2019-02-25T11:26:32.764Z,39.40
2019-02-25T11:29:05.448Z,39.20
2019-02-25T11:31:36.830Z,37.90
2019-02-25T11:34:08.239Z,36.80
2019-02-25T11:36:39.635Z,39.00
2019-02-25T11:39:11.183Z,36.50
2019-02-25T11:41:42.616Z,38.60
2019-02-25T11:44:13.957Z,39.20
2019-02-25T11:46:45.266Z,36.50
2019-02-25T11:49:16.545Z,38.90
2019-02-25T11:51:47.991Z,35.40
2019-02-25T11:54:19.331Z,41.30
2019-02-25T11:56:50.708Z,40.50
2019-02-25T11:59:22.027Z,39.00
2019-02-25T12:01:53.343Z,40.00
2019-02-25T12:04:24.615Z,41.50
2019-02-25T12:06:55.991Z,40.70
2019-02-25T12:09:27.401Z,38.70
2019-02-25T12:11:58.723Z,35.90
2019-02-25T12:14:48.139Z,36.40
2019-02-25T12:17:19.479Z,36.80
2019-02-25T12:19:50.785Z,36.40
2019-02-25T12:22:22.166Z,38.20
2019-02-25T12:24:53.452Z,39.60
2019-02-25T12:27:24.844Z,36.90
2019-02-25T12:29:56.184Z,36.80
2019-02-25T12:32:27.596Z,38.60
2019-02-25T12:34:58.890Z,41.70
2019-02-25T12:37:30.198Z,39.50
2019-02-25T12:40:01.542Z,40.30
2019-02-25T12:42:34.016Z,38.00
2019-02-25T12:45:08.963Z,38.00
2019-02-25T12:47:40.410Z,43.40
2019-02-25T12:50:19.433Z,40.30
2019-02-25T12:52:50.828Z,42.40
2019-02-25T12:55:22.150Z,38.50
2019-02-25T12:57:53.442Z,39.60
2019-02-25T13:00:26.311Z,39.90
2019-02-25T13:02:57.735Z,39.80
2019-02-25T13:05:29.056Z,38.20
2019-02-25T13:08:00.449Z,43.60
2019-02-25T13:10:31.967Z,37.80
2019-02-25T13:13:03.272Z,40.60
2019-02-25T13:15:34.616Z,41.00
2019-02-25T13:18:05.999Z,41.00
2019-02-25T13:20:37.362Z,43.20
2019-02-25T13:23:08.756Z,39.60
2019-02-25T13:25:40.045Z,40.60
2019-02-25T13:28:11.519Z,38.90
2019-02-25T13:30:43.057Z,43.50
2019-02-25T13:33:14.536Z,39.30
2019-02-25T13:35:45.959Z,40.00
2019-02-25T13:38:17.564Z,38.80
2019-02-25T13:40:48.913Z,40.80
2019-02-25T13:43:20.350Z,40.20
2019-02-25T13:45:51.762Z,39.40
2019-02-25T13:48:23.115Z,38.80
2019-02-25T13:50:54.461Z,38.90
2019-02-25T13:53:26.036Z,40.20
2019-02-25T13:55:57.438Z,39.00
2019-02-25T13:58:35.605Z,39.80
2019-02-25T14:01:07.048Z,40.10
2019-02-25T14:03:39.214Z,40.40
2019-02-25T14:06:10.831Z,40.30
2019-02-25T14:08:51.608Z,40.70
2019-02-25T14:11:23.017Z,39.50
2019-02-25T14:14:01.670Z,38.60
2019-02-25T14:16:34.248Z,40.90
2019-02-25T14:19:06.572Z,39.40
2019-02-25T14:21:37.980Z,38.70
2019-02-25T14:24:09.670Z,40.50
2019-02-25T14:26:40.999Z,38.90
2019-02-25T14:29:12.503Z,40.60
2019-02-25T14:31:43.893Z,39.10
2019-02-25T14:34:15.422Z,40.70
2019-02-25T14:36:48.484Z,40.10
2019-02-25T14:39:27.841Z,43.00
2019-02-25T14:41:58.946Z,40.10
2019-02-25T14:44:32.288Z,40.90
2019-02-25T14:47:03.453Z,40.20
2019-02-25T14:49:37.655Z,40.50
2019-02-25T14:52:08.865Z,42.60
2019-02-25T14:54:40.241Z,41.70
2019-02-25T14:57:11.581Z,42.10
2019-02-25T14:59:43.053Z,41.70
2019-02-25T15:02:14.505Z,40.70
2019-02-25T15:04:45.913Z,39.80
2019-02-25T15:07:17.258Z,40.50
2019-02-25T15:09:51.919Z,41.40
2019-02-25T15:12:27.705Z,40.60
2019-02-25T15:15:00.220Z,40.20
2019-02-25T15:17:34.166Z,41.70
2019-02-25T15:20:12.644Z,39.80
2019-02-25T15:22:45.580Z,40.80
2019-02-25T15:25:19.926Z,41.00
2019-02-25T15:27:52.548Z,41.40
2019-02-25T15:30:31.953Z,40.50
2019-02-25T15:33:03.357Z,41.20
2019-02-25T15:35:36.967Z,40.70
2019-02-25T15:38:07.950Z,42.10
2019-02-25T15:40:39.609Z,41.50
2019-02-25T15:43:17.536Z,41.00
2019-02-25T15:45:47.306Z,41.30
2019-02-25T15:48:23.197Z,43.40
2019-02-25T15:50:58.611Z,41.80
2019-02-25T15:53:29.475Z,42.60
2019-02-25T15:56:01.889Z,43.80
2019-02-25T15:58:37.322Z,43.30
2019-02-25T16:01:09.837Z,45.40
2019-02-25T16:03:42.948Z,45.40
2019-02-25T16:06:16.334Z,44.50
2019-02-25T16:08:50.399Z,44.60
2019-02-25T16:11:25.608Z,44.10
2019-02-25T16:13:55.708Z,43.80
2019-02-25T16:16:28.090Z,44.10
2019-02-25T16:18:59.625Z,44.40
2019-02-25T16:21:32.168Z,45.10
2019-02-25T16:24:04.796Z,45.00
2019-02-25T16:26:38.211Z,45.20
2019-02-25T16:29:11.668Z,45.70
2019-02-25T16:31:43.405Z,45.00
2019-02-25T16:34:16.442Z,45.80
2019-02-25T16:36:51.460Z,46.30
2019-02-25T16:39:21.151Z,46.00
2019-02-25T16:41:52.499Z,47.20
2019-02-25T16:44:23.847Z,47.40
2019-02-25T16:46:56.352Z,46.90
2019-02-25T16:49:29.149Z,48.20
2019-02-25T16:52:02.248Z,47.70
2019-02-25T16:54:33.824Z,47.90
2019-02-25T16:57:07.208Z,48.20
2019-02-25T16:59:38.580Z,49.00
2019-02-25T17:02:13.962Z,49.30
2019-02-25T17:04:43.198Z,50.80
2019-02-25T17:07:17.817Z,52.00
2019-02-25T17:09:48.985Z,53.20
2019-02-25T17:12:21.186Z,54.00
2019-02-25T17:14:55.137Z,54.80
2019-02-25T17:17:26.960Z,55.30
2019-02-25T17:19:59.826Z,55.70
2019-02-25T17:22:31.281Z,54.90
2019-02-25T17:25:05.815Z,56.10
2019-02-25T17:27:37.870Z,56.30
2019-02-25T17:30:15.260Z,56.20
2019-02-25T17:32:48.396Z,56.70
2019-02-25T17:35:23.587Z,57.40
2019-02-25T17:37:56.229Z,57.60
2019-02-25T17:40:28.113Z,57.50
2019-02-25T17:43:02.180Z,57.60
2019-02-25T17:45:34.583Z,57.60
2019-02-25T17:48:08.953Z,57.90
2019-02-25T17:50:41.635Z,58.10
2019-02-25T17:53:13.234Z,58.70
2019-02-25T17:55:44.919Z,58.90
2019-02-25T17:58:17.045Z,58.80
2019-02-25T18:00:49.758Z,58.60
2019-02-25T18:03:22.094Z,58.50
2019-02-25T18:05:56.310Z,58.40
2019-02-25T18:08:28.155Z,58.70
2019-02-25T18:11:00.595Z,59.00
2019-02-25T18:13:33.487Z,59.40
2019-02-25T18:16:05.743Z,60.00
2019-02-25T18:18:39.071Z,60.30
2019-02-25T18:21:12.386Z,60.20
2019-02-25T18:23:44.211Z,60.10
2019-02-25T18:26:20.315Z,60.10
2019-02-25T18:28:53.721Z,61.50
2019-02-25T18:31:25.794Z,61.50
2019-02-25T18:33:57.328Z,61.50
2019-02-25T18:36:30.929Z,61.70
2019-02-25T18:39:02.088Z,61.50
2019-02-25T18:41:35.330Z,62.10
2019-02-25T18:44:07.580Z,62.00
2019-02-25T18:46:41.730Z,62.00
2019-02-25T18:49:13.798Z,62.10
2019-02-25T18:51:45.290Z,62.80
2019-02-25T18:54:17.432Z,62.30
2019-02-25T18:56:50.144Z,62.50
2019-02-25T18:59:21.837Z,62.60
2019-02-25T19:01:54.064Z,62.70
2019-02-25T19:04:26.888Z,63.30
2019-02-25T19:06:59.770Z,64.30
2019-02-25T19:09:34.693Z,65.30
2019-02-25T19:12:08.141Z,65.60
2019-02-25T19:14:39.688Z,65.00
2019-02-25T19:17:11.195Z,65.80
2019-02-25T19:19:44.515Z,65.70
2019-02-25T19:22:17.883Z,66.30
2019-02-25T19:24:51.227Z,66.90
2019-02-25T19:27:22.725Z,67.50
2019-02-25T19:29:57.971Z,67.50
2019-02-25T19:32:27.593Z,67.10
2019-02-25T19:35:01.263Z,67.40
2019-02-25T19:37:37.627Z,67.50
2019-02-25T19:40:19.607Z,67.90
2019-02-25T19:42:51.584Z,67.10
2019-02-25T19:45:24.212Z,68.20
2019-02-25T19:47:57.793Z,67.40
2019-02-25T19:50:29.996Z,68.40
2019-02-25T19:53:04.655Z,67.70
2019-02-25T19:55:38.638Z,67.70
2019-02-25T19:58:09.817Z,67.50
2019-02-25T20:00:41.405Z,67.20
2019-02-25T20:03:12.877Z,67.30
2019-02-25T20:05:46.344Z,67.90
2019-02-25T20:08:18.635Z,68.10
2019-02-25T20:10:54.356Z,68.20
2019-02-25T20:13:25.121Z,70.40
2019-02-25T20:15:56.440Z,69.60
2019-02-25T20:18:27.967Z,69.40
2019-02-25T20:21:03.459Z,69.10
2019-02-25T20:23:33.236Z,69.20
2019-02-25T20:26:04.823Z,69.20
2019-02-25T20:28:36.189Z,69.20
2019-02-25T20:31:10.026Z,70.00
2019-02-25T20:33:44.746Z,70.30
2019-02-25T20:36:19.272Z,70.70
2019-02-25T20:38:52.118Z,70.80
2019-02-25T20:41:24.549Z,71.90
2019-02-25T20:43:58.327Z,71.10
2019-02-25T20:46:30.800Z,71.40
2019-02-25T20:49:02.830Z,71.50
2019-02-25T20:51:36.083Z,71.70
2019-02-25T20:54:08.928Z,71.90
2019-02-25T20:56:40.397Z,71.30
2019-02-25T20:59:11.851Z,71.30
2019-02-25T21:01:44.617Z,72.10
2019-02-25T21:04:17.897Z,72.00
2019-02-25T21:06:50.365Z,72.60
2019-02-25T21:09:21.867Z,73.10
2019-02-25T21:11:53.355Z,73.80
2019-02-25T21:14:24.687Z,74.00
2019-02-25T21:16:57.986Z,74.50
2019-02-25T21:19:29.093Z,75.50
2019-02-25T21:22:04.308Z,75.40
2019-02-25T21:24:37.470Z,76.10
2019-02-25T21:27:10.454Z,76.40
2019-02-25T21:29:41.572Z,76.50
2019-02-25T21:32:15.084Z,76.30
2019-02-25T21:34:50.115Z,76.50
2019-02-25T21:37:20.842Z,76.30
2019-02-25T21:39:52.108Z,76.70
2019-02-25T21:42:24.670Z,76.80
2019-02-25T21:44:57.127Z,77.10
2019-02-25T21:47:30.901Z,77.00
2019-02-25T21:50:06.351Z,77.50
2019-02-25T21:52:38.787Z,77.20
2019-02-25T21:55:12.083Z,77.50
2019-02-25T21:57:43.602Z,77.60
2019-02-25T22:00:20.485Z,77.80
2019-02-25T22:02:52.681Z,78.00
2019-02-25T22:05:24.209Z,78.60
2019-02-25T22:07:57.756Z,78.40
2019-02-25T22:10:28.764Z,78.90
2019-02-25T22:13:04.398Z,79.50
2019-02-25T22:15:36.095Z,80.10
2019-02-25T22:18:09.312Z,80.30
2019-02-25T22:20:42.697Z,80.20
2019-02-25T22:23:13.470Z,80.10
2019-02-25T22:25:44.902Z,80.80
2019-02-25T22:28:17.278Z,81.00
2019-02-25T22:30:49.812Z,81.30
2019-02-25T22:33:27.363Z,82.20
2019-02-25T22:35:54.625Z,82.00
2019-02-25T22:38:25.945Z,82.50
2019-02-25T22:40:59.441Z,82.90
2019-02-25T22:43:30.401Z,83.10
2019-02-25T22:46:02.493Z,83.90
2019-02-25T22:48:35.832Z,84.30
2019-02-25T22:51:07.738Z,85.00
2019-02-25T22:53:39.164Z,85.20
2019-02-25T22:56:13.394Z,84.90
2019-02-25T22:58:43.622Z,84.90
2019-02-25T23:01:17.946Z,84.70
2019-02-25T23:03:52.169Z,85.10
2019-02-25T23:06:25.367Z,85.40
2019-02-25T23:08:56.791Z,85.30
2019-02-25T23:11:28.278Z,86.10
2019-02-25T23:13:59.874Z,86.60
2019-02-25T23:16:31.280Z,87.00
2019-02-25T23:19:02.652Z,86.40
2019-02-25T23:21:35.985Z,86.90
2019-02-25T23:24:07.444Z,87.60
2019-02-25T23:26:38.965Z,88.20
2019-02-25T23:29:10.460Z,88.30
2019-02-25T23:31:48.776Z,88.80
2019-02-25T23:34:20.409Z,89.00
2019-02-25T23:36:54.411Z,89.30
2019-02-25T23:39:26.163Z,89.40
2019-02-25T23:41:57.570Z,90.00
2019-02-25T23:44:28.967Z,90.00
2019-02-25T23:47:01.999Z,90.20
2019-02-25T23:49:34.269Z,90.50
2019-02-25T23:52:06.368Z,90.70
2019-02-25T23:54:37.742Z,90.90
2019-02-25T23:57:09.125Z,91.10
2019-02-25T23:59:42.488Z,91.30
